Time;durP1;ratioP1;P1;durP2;ratioP2;P2;SDS_P1;SDS_P2;PMS_P1;PMS_P2;Temp;Humidity;BMP_temperature;BMP_pressure;BME280_temperature;BME280_humidity;BME280_pressure;Samples;Min_cycle;Max_cycle;Signal;HPM_P1;HPM_P2
2022/09/26 00:00:44;;;;;;;5.57;3.30;;;;;;;;;;7392824;19;20002;-76
2022/09/26 00:03:10;;;;;;;5.13;2.85;;;;;;;;;;7394511;19;20002;-75
2022/09/26 00:05:37;;;;;;;4.35;2.85;;;;;;;;;;7395188;19;20010;-76
2022/09/26 00:08:03;;;;;;;4.93;3.00;;;;;;;;;;7394488;19;20503;-76
2022/09/26 00:10:28;;;;;;;3.72;2.70;;;;;;;;;;7394310;19;20039;-76
2022/09/26 00:12:55;;;;;;;4.88;2.80;;;;;;;;;;7395825;19;19999;-76
2022/09/26 00:15:20;;;;;;;3.85;2.83;;;;;;;;;;7392751;19;20439;-76
2022/09/26 00:17:45;;;;;;;4.03;2.80;;;;;;;;;;7397380;19;20002;-76
2022/09/26 00:20:11;;;;;;;3.80;2.50;;;;;;;;;;7393169;19;20082;-75
2022/09/26 00:22:36;;;;;;;3.50;2.53;;;;;;;;;;7393499;19;20013;-76
2022/09/26 00:25:02;;;;;;;11.48;3.20;;;;;;;;;;7391214;19;20031;-74
2022/09/26 00:27:28;;;;;;;4.70;2.67;;;;;;;;;;7396100;19;20006;-76
2022/09/26 00:29:53;;;;;;;4.35;3.13;;;;;;;;;;7389853;19;20009;-75
2022/09/26 00:32:18;;;;;;;5.38;2.83;;;;;;;;;;7393129;19;20007;-75
2022/09/26 00:34:43;;;;;;;4.57;2.80;;;;;;;;;;7396065;19;20003;-75
2022/09/26 00:37:09;;;;;;;4.38;2.65;;;;;;;;;;7389152;19;19999;-75
2022/09/26 00:39:34;;;;;;;3.95;3.10;;;;;;;;;;7392899;19;20038;-75
2022/09/26 00:41:59;;;;;;;4.32;3.15;;;;;;;;;;7391923;19;20018;-75
2022/09/26 00:44:47;;;;;;;5.50;2.67;;;;;;;;;;7394693;19;20007;-76
2022/09/26 00:47:33;;;;;;;4.15;2.70;;;;;;;;;;7390765;19;19994;-76
2022/09/26 00:50:12;;;;;;;4.75;3.38;;;;;;;;;;7393474;19;20024;-76
2022/09/26 00:52:44;;;;;;;5.13;3.00;;;;;;;;;;7389397;19;20014;-76
2022/09/26 00:55:12;;;;;;;4.10;2.65;;;;;;;;;;7392619;19;20044;-75
2022/09/26 00:57:44;;;;;;;3.45;2.47;;;;;;;;;;7392215;19;20010;-75
2022/09/26 01:00:11;;;;;;;5.72;2.85;;;;;;;;;;7392659;19;20013;-75
2022/09/26 01:02:37;;;;;;;3.85;2.53;;;;;;;;;;7391765;19;20010;-75
2022/09/26 01:05:04;;;;;;;3.13;2.40;;;;;;;;;;7394028;19;20005;-75
2022/09/26 01:07:31;;;;;;;4.35;2.78;;;;;;;;;;7393236;19;20013;-75
2022/09/26 01:09:57;;;;;;;3.83;2.75;;;;;;;;;;7394384;19;20538;-75
2022/09/26 01:12:23;;;;;;;3.90;2.97;;;;;;;;;;7390067;19;20017;-75
2022/09/26 01:14:52;;;;;;;4.50;3.00;;;;;;;;;;7392822;19;20006;-75
2022/09/26 01:17:18;;;;;;;3.50;2.47;;;;;;;;;;7388704;19;20126;-75
2022/09/26 01:19:50;;;;;;;4.95;3.25;;;;;;;;;;7393567;19;20019;-75
2022/09/26 01:22:33;;;;;;;3.75;2.78;;;;;;;;;;7389564;19;20493;-75
2022/09/26 01:25:14;;;;;;;5.07;2.80;;;;;;;;;;7392448;19;19990;-75
2022/09/26 01:28:16;;;;;;;4.00;3.10;;;;;;;;;;7390429;19;20019;-76
2022/09/26 01:30:49;;;;;;;4.35;2.97;;;;;;;;;;7390728;19;20013;-75
2022/09/26 01:33:23;;;;;;;4.22;3.03;;;;;;;;;;7391722;19;20024;-75
2022/09/26 01:36:23;;;;;;;4.72;3.22;;;;;;;;;;7391960;19;20100;-76
2022/09/26 01:38:59;;;;;;;3.55;2.45;;;;;;;;;;7391935;19;20463;-75
2022/09/26 01:41:47;;;;;;;3.47;1.98;;;;;;;;;;7388728;19;20007;-76
2022/09/26 01:44:24;;;;;;;3.95;2.88;;;;;;;;;;7392054;19;20015;-75
2022/09/26 01:46:51;;;;;;;5.88;3.05;;;;;;;;;;7387627;19;20427;-75
2022/09/26 01:49:47;;;;;;;5.60;3.65;;;;;;;;;;7392951;19;20033;-75
2022/09/26 01:52:49;;;;;;;3.80;2.95;;;;;;;;;;7389165;19;20018;-75
2022/09/26 01:55:17;;;;;;;6.25;3.97;;;;;;;;;;7388076;19;20017;-75
2022/09/26 01:57:48;;;;;;;4.93;3.97;;;;;;;;;;7392519;19;20018;-76
2022/09/26 02:00:14;;;;;;;8.05;4.00;;;;;;;;;;7393325;19;20006;-75
2022/09/26 02:02:44;;;;;;;4.43;3.25;;;;;;;;;;7386542;19;20338;-75
2022/09/26 02:05:19;;;;;;;5.40;3.53;;;;;;;;;;7392573;19;19994;-75
2022/09/26 02:07:54;;;;;;;4.80;3.55;;;;;;;;;;7391058;19;20007;-75
2022/09/26 02:10:33;;;;;;;4.75;3.60;;;;;;;;;;7391228;19;19998;-75
2022/09/26 02:13:07;;;;;;;7.15;4.03;;;;;;;;;;7391741;19;20002;-75
2022/09/26 02:15:35;;;;;;;7.68;4.20;;;;;;;;;;7388180;19;20009;-75
2022/09/26 02:18:15;;;;;;;7.43;5.45;;;;;;;;;;7392076;19;20017;-75
2022/09/26 02:20:46;;;;;;;7.93;4.35;;;;;;;;;;7388543;19;20047;-75
2022/09/26 02:23:11;;;;;;;5.13;4.07;;;;;;;;;;7391345;19;20114;-75
2022/09/26 02:25:37;;;;;;;5.38;4.13;;;;;;;;;;7389751;19;20119;-76
2022/09/26 02:28:03;;;;;;;6.38;3.95;;;;;;;;;;7391613;19;20023;-76
2022/09/26 02:30:28;;;;;;;5.03;3.90;;;;;;;;;;7388399;19;20027;-75
2022/09/26 02:32:54;;;;;;;7.90;4.70;;;;;;;;;;7391279;19;20061;-73
2022/09/26 02:38:04;;;;;;;5.85;3.97;;;;;;;;;;7388626;19;20364;-71
2022/09/26 02:41:17;;;;;;;6.47;3.88;;;;;;;;;;7388415;19;20080;-71
2022/09/26 02:44:04;;;;;;;5.50;3.75;;;;;;;;;;7389732;19;20373;-71
2022/09/26 02:46:54;;;;;;;7.88;4.07;;;;;;;;;;7386970;19;20504;-71
2022/09/26 02:49:45;;;;;;;5.53;4.20;;;;;;;;;;7389614;19;20007;-71
2022/09/26 02:52:22;;;;;;;5.97;4.10;;;;;;;;;;7387438;19;20011;-71
2022/09/26 02:55:05;;;;;;;3.88;3.45;;;;;;;;;;7387563;19;20014;-71
2022/09/26 02:58:06;;;;;;;6.07;4.28;;;;;;;;;;7390709;19;20394;-71
2022/09/26 03:00:47;;;;;;;5.53;3.90;;;;;;;;;;7388429;19;20014;-72
2022/09/26 03:03:23;;;;;;;5.63;3.88;;;;;;;;;;7396936;19;20496;-71
2022/09/26 03:05:53;;;;;;;6.90;3.83;;;;;;;;;;7394063;19;20050;-71
2022/09/26 03:08:25;;;;;;;5.07;3.67;;;;;;;;;;7397360;19;19998;-71
2022/09/26 03:10:53;;;;;;;6.05;3.70;;;;;;;;;;7393591;19;20002;-71
2022/09/26 03:13:19;;;;;;;6.70;4.40;;;;;;;;;;7396836;19;20016;-71
2022/09/26 03:15:50;;;;;;;9.10;4.43;;;;;;;;;;7393175;19;20014;-71
2022/09/26 03:18:21;;;;;;;6.18;4.40;;;;;;;;;;7396761;19;20467;-71
2022/09/26 03:20:47;;;;;;;6.05;4.43;;;;;;;;;;7390608;19;20347;-71
2022/09/26 03:23:12;;;;;;;6.95;4.00;;;;;;;;;;7395969;19;19999;-71
2022/09/26 03:25:38;;;;;;;5.88;4.25;;;;;;;;;;7392510;19;20432;-71
2022/09/26 03:28:04;;;;;;;5.18;3.60;;;;;;;;;;7395707;19;20003;-71
2022/09/26 03:30:29;;;;;;;6.32;4.07;;;;;;;;;;7393485;19;20011;-71
2022/09/26 03:32:55;;;;;;;5.40;3.75;;;;;;;;;;7397951;19;20015;-71
2022/09/26 03:35:20;;;;;;;6.90;5.20;;;;;;;;;;7391070;19;20114;-71
2022/09/26 03:37:46;;;;;;;6.88;3.97;;;;;;;;;;7394441;19;20006;-71
2022/09/26 03:40:12;;;;;;;6.75;3.92;;;;;;;;;;7390191;19;19991;-71
2022/09/26 03:42:38;;;;;;;4.75;3.13;;;;;;;;;;7395764;19;20006;-71
2022/09/26 03:45:07;;;;;;;7.00;4.40;;;;;;;;;;7388176;19;20010;-71
2022/09/26 03:47:33;;;;;;;6.78;4.15;;;;;;;;;;7396073;19;20022;-71
2022/09/26 03:49:59;;;;;;;8.70;4.35;;;;;;;;;;7395197;19;20478;-71
2022/09/26 03:52:25;;;;;;;7.60;4.32;;;;;;;;;;7395765;19;20022;-71
2022/09/26 03:54:52;;;;;;;5.45;4.00;;;;;;;;;;7391894;19;19999;-71
2022/09/26 03:57:17;;;;;;;7.07;4.72;;;;;;;;;;7395435;19;20467;-71
2022/09/26 03:59:43;;;;;;;6.85;4.32;;;;;;;;;;7392560;19;19995;-71
2022/09/26 04:02:08;;;;;;;5.40;3.75;;;;;;;;;;7395511;19;20022;-71
2022/09/26 04:04:34;;;;;;;7.53;4.97;;;;;;;;;;7389921;19;20020;-71
2022/09/26 04:07:00;;;;;;;5.10;3.88;;;;;;;;;;7394858;19;20007;-71
2022/09/26 04:09:26;;;;;;;5.88;4.05;;;;;;;;;;7390670;19;20031;-72
2022/09/26 04:11:52;;;;;;;7.30;3.95;;;;;;;;;;7392466;19;20002;-71
2022/09/26 04:14:18;;;;;;;5.80;4.28;;;;;;;;;;7389759;19;20486;-71
2022/09/26 04:16:44;;;;;;;6.18;4.10;;;;;;;;;;7389265;19;20053;-71
2022/09/26 04:19:11;;;;;;;7.13;3.88;;;;;;;;;;7389184;19;19991;-71
2022/09/26 04:21:39;;;;;;;5.97;3.97;;;;;;;;;;7393335;19;20034;-71
2022/09/26 04:24:11;;;;;;;6.97;4.28;;;;;;;;;;7389258;19;20726;-72
2022/09/26 04:26:39;;;;;;;6.95;4.30;;;;;;;;;;7391222;19;20404;-71
2022/09/26 04:29:04;;;;;;;8.13;3.85;;;;;;;;;;7393843;19;20427;-71
2022/09/26 04:31:29;;;;;;;6.80;3.70;;;;;;;;;;7391905;19;20023;-72
2022/09/26 04:33:55;;;;;;;7.63;4.43;;;;;;;;;;7390755;19;20011;-71
2022/09/26 04:36:21;;;;;;;5.68;3.85;;;;;;;;;;7384872;19;20002;-72
2022/09/26 04:38:46;;;;;;;6.30;4.07;;;;;;;;;;7393880;19;20002;-71
2022/09/26 04:41:17;;;;;;;8.27;4.38;;;;;;;;;;7387753;19;20006;-71
2022/09/26 04:43:43;;;;;;;6.47;4.20;;;;;;;;;;7385848;19;20118;-71
2022/09/26 04:46:14;;;;;;;8.63;4.88;;;;;;;;;;7386435;19;20032;-71
2022/09/26 04:48:39;;;;;;;9.02;5.38;;;;;;;;;;7383731;19;20006;-71
2022/09/26 04:51:10;;;;;;;6.00;3.78;;;;;;;;;;7388372;19;20014;-72
2022/09/26 04:53:37;;;;;;;5.70;3.75;;;;;;;;;;7386731;19;20360;-72
2022/09/26 04:56:03;;;;;;;7.00;4.10;;;;;;;;;;7385919;19;20006;-72
2022/09/26 04:58:28;;;;;;;5.03;3.45;;;;;;;;;;7390407;19;20027;-71
2022/09/26 05:00:53;;;;;;;6.72;3.95;;;;;;;;;;7391487;19;19991;-72
2022/09/26 05:03:19;;;;;;;6.35;4.18;;;;;;;;;;7390277;19;20014;-70
2022/09/26 05:05:46;;;;;;;6.85;4.47;;;;;;;;;;7392420;19;20110;-72
2022/09/26 05:08:12;;;;;;;8.07;4.22;;;;;;;;;;7385535;19;20011;-72
2022/09/26 05:10:38;;;;;;;6.53;4.20;;;;;;;;;;7391737;19;20009;-71
2022/09/26 05:13:04;;;;;;;7.00;4.50;;;;;;;;;;7386325;19;19999;-72
2022/09/26 05:15:30;;;;;;;5.68;3.88;;;;;;;;;;7391895;19;20006;-72
2022/09/26 05:17:59;;;;;;;5.05;4.10;;;;;;;;;;7390123;19;20366;-72
2022/09/26 05:20:30;;;;;;;6.90;3.40;;;;;;;;;;7388164;19;20078;-73
2022/09/26 05:23:03;;;;;;;5.90;3.63;;;;;;;;;;7385980;19;20007;-72
2022/09/26 05:28:18;;;;;;;6.18;3.63;;;;;;;;;;7390948;19;20031;-71
2022/09/26 05:30:43;;;;;;;5.00;3.63;;;;;;;;;;7390922;19;20361;-72
2022/09/26 05:33:11;;;;;;;5.47;3.42;;;;;;;;;;7387507;19;19991;-72
2022/09/26 05:35:37;;;;;;;5.00;2.75;;;;;;;;;;7388862;19;20010;-71
2022/09/26 05:38:03;;;;;;;5.47;3.47;;;;;;;;;;7389833;19;20002;-72
2022/09/26 05:43:12;;;;;;;6.15;4.15;;;;;;;;;;7389203;19;20054;-71
2022/09/26 05:45:38;;;;;;;6.15;3.40;;;;;;;;;;7389122;19;19999;-70
2022/09/26 05:48:05;;;;;;;5.72;3.53;;;;;;;;;;7389998;19;20365;-71
2022/09/26 05:50:31;;;;;;;5.75;3.58;;;;;;;;;;7389379;19;20015;-70
2022/09/26 05:52:58;;;;;;;4.60;3.28;;;;;;;;;;7388430;19;19998;-71
2022/09/26 05:55:25;;;;;;;5.43;3.53;;;;;;;;;;7387766;19;20006;-70
2022/09/26 05:57:57;;;;;;;5.80;3.33;;;;;;;;;;7390763;19;19999;-70
2022/09/26 06:00:23;;;;;;;6.22;4.10;;;;;;;;;;7389792;19;20369;-72
2022/09/26 06:02:56;;;;;;;4.65;3.08;;;;;;;;;;7392023;19;20029;-72
2022/09/26 06:05:23;;;;;;;5.47;3.70;;;;;;;;;;7383712;19;20474;-72
2022/09/26 06:07:48;;;;;;;5.57;3.78;;;;;;;;;;7391492;19;20006;-72
2022/09/26 06:10:14;;;;;;;8.27;3.58;;;;;;;;;;7384227;19;20016;-71
2022/09/26 06:12:39;;;;;;;5.30;3.38;;;;;;;;;;7390586;19;20609;-72
2022/09/26 06:15:05;;;;;;;7.40;3.88;;;;;;;;;;7389560;19;20001;-72
2022/09/26 06:17:31;;;;;;;5.30;3.58;;;;;;;;;;7391375;19;20459;-72
2022/09/26 06:19:56;;;;;;;7.30;4.15;;;;;;;;;;7387337;19;20003;-72
2022/09/26 06:22:21;;;;;;;6.30;3.42;;;;;;;;;;7384887;19;20089;-72
2022/09/26 06:24:47;;;;;;;5.75;3.88;;;;;;;;;;7385400;19;19991;-71
2022/09/26 06:27:12;;;;;;;5.57;3.42;;;;;;;;;;7387361;19;20035;-72
2022/09/26 06:29:38;;;;;;;5.60;3.33;;;;;;;;;;7388282;19;20003;-72
2022/09/26 06:32:03;;;;;;;3.58;3.03;;;;;;;;;;7388229;19;20013;-72
2022/09/26 06:34:29;;;;;;;5.97;3.60;;;;;;;;;;7387122;19;20107;-72
2022/09/26 06:36:54;;;;;;;4.20;3.03;;;;;;;;;;7392347;19;20008;-72
2022/09/26 06:39:19;;;;;;;5.05;3.40;;;;;;;;;;7394671;19;20014;-72
2022/09/26 06:41:44;;;;;;;4.53;2.83;;;;;;;;;;7389129;19;19999;-73
2022/09/26 06:44:10;;;;;;;4.35;2.80;;;;;;;;;;7394430;19;20007;-72
2022/09/26 06:46:35;;;;;;;5.32;3.13;;;;;;;;;;7397874;19;20022;-72
2022/09/26 06:49:00;;;;;;;4.05;2.55;;;;;;;;;;7391323;19;20018;-72
2022/09/26 06:51:26;;;;;;;4.32;2.90;;;;;;;;;;7394300;19;20031;-73
2022/09/26 06:53:51;;;;;;;6.65;3.08;;;;;;;;;;7394561;19;20002;-73
2022/09/26 06:56:17;;;;;;;6.65;3.08;;;;;;;;;;7387036;19;19998;-72
2022/09/26 06:58:42;;;;;;;4.32;2.72;;;;;;;;;;7394087;19;20010;-73
2022/09/26 07:01:09;;;;;;;4.00;2.90;;;;;;;;;;7392807;19;20013;-72
2022/09/26 07:03:35;;;;;;;6.32;2.60;;;;;;;;;;7393167;19;20010;-71
2022/09/26 07:06:02;;;;;;;3.75;2.63;;;;;;;;;;7395793;19;20003;-72
2022/09/26 07:08:27;;;;;;;4.57;2.70;;;;;;;;;;7394086;19;19994;-72
2022/09/26 07:10:58;;;;;;;6.85;3.33;;;;;;;;;;7390957;19;20340;-72
2022/09/26 07:13:24;;;;;;;5.32;2.92;;;;;;;;;;7395441;19;20010;-71
2022/09/26 07:15:49;;;;;;;4.53;2.70;;;;;;;;;;7396390;19;20459;-72
2022/09/26 07:18:16;;;;;;;5.20;2.63;;;;;;;;;;7393100;19;20012;-72
2022/09/26 07:20:46;;;;;;;5.30;2.50;;;;;;;;;;7396026;19;20046;-71
2022/09/26 07:23:12;;;;;;;4.93;3.30;;;;;;;;;;7395037;19;19999;-72
2022/09/26 07:25:38;;;;;;;4.75;2.90;;;;;;;;;;7387532;19;20002;-72
2022/09/26 07:28:05;;;;;;;4.20;2.47;;;;;;;;;;7387792;19;20006;-71
2022/09/26 07:30:30;;;;;;;4.45;2.65;;;;;;;;;;7392566;19;20017;-72
2022/09/26 07:33:02;;;;;;;6.65;2.22;;;;;;;;;;7393510;19;20062;-73
2022/09/26 07:35:28;;;;;;;3.80;2.25;;;;;;;;;;7389081;19;20735;-72
2022/09/26 07:37:53;;;;;;;4.88;2.28;;;;;;;;;;7393401;19;20006;-72
2022/09/26 07:40:21;;;;;;;4.22;1.90;;;;;;;;;;7390589;19;20311;-71
2022/09/26 07:42:47;;;;;;;2.67;1.80;;;;;;;;;;7382483;19;20168;-72
2022/09/26 07:45:12;;;;;;;4.03;1.75;;;;;;;;;;7386220;19;20070;-72
2022/09/26 07:50:22;;;;;;;4.88;2.13;;;;;;;;;;7391088;19;20009;-72
2022/09/26 07:52:49;;;;;;;4.60;2.10;;;;;;;;;;7387581;19;19998;-72
2022/09/26 07:55:18;;;;;;;4.50;2.20;;;;;;;;;;7389432;19;20041;-72
2022/09/26 07:57:43;;;;;;;4.63;2.60;;;;;;;;;;7392855;19;20434;-72
2022/09/26 08:00:12;;;;;;;4.10;1.67;;;;;;;;;;7393375;19;20023;-72
2022/09/26 08:02:41;;;;;;;4.38;2.00;;;;;;;;;;7394470;19;20007;-73
2022/09/26 08:05:08;;;;;;;4.85;2.28;;;;;;;;;;7392864;19;20006;-73
2022/09/26 08:07:34;;;;;;;2.28;1.88;;;;;;;;;;7389301;19;20003;-72
2022/09/26 08:10:01;;;;;;;4.50;2.10;;;;;;;;;;7392620;19;20348;-74
2022/09/26 08:12:32;;;;;;;3.13;2.00;;;;;;;;;;7393753;19;20023;-73
2022/09/26 08:14:58;;;;;;;2.60;1.67;;;;;;;;;;7386887;19;20014;-72
2022/09/26 08:17:23;;;;;;;2.58;1.75;;;;;;;;;;7392277;19;19998;-73
2022/09/26 08:19:48;;;;;;;5.18;1.75;;;;;;;;;;7392225;19;20001;-73
2022/09/26 08:22:14;;;;;;;3.00;2.03;;;;;;;;;;7390207;19;20011;-73
2022/09/26 08:24:39;;;;;;;3.10;2.03;;;;;;;;;;7388693;19;20007;-73
2022/09/26 08:27:05;;;;;;;5.88;2.05;;;;;;;;;;7391295;19;20037;-72
2022/09/26 08:29:33;;;;;;;4.50;1.48;;;;;;;;;;7394739;19;20343;-73
2022/09/26 08:32:01;;;;;;;3.28;1.50;;;;;;;;;;7390157;19;20009;-73
2022/09/26 08:34:26;;;;;;;3.00;1.70;;;;;;;;;;7390021;19;20010;-71
2022/09/26 08:36:53;;;;;;;2.30;1.60;;;;;;;;;;7387992;19;20074;-72
2022/09/26 08:39:21;;;;;;;1.50;1.40;;;;;;;;;;7391865;19;20070;-71
2022/09/26 08:42:00;;;;;;;5.22;1.48;;;;;;;;;;7391605;19;19991;-71
2022/09/26 08:44:56;;;;;;;5.22;1.92;;;;;;;;;;7388985;19;20018;-71
2022/09/26 08:47:42;;;;;;;;;;;;;;;;;;7390667;19;20014;-71
2022/09/26 08:50:17;;;;;;;1.35;1.17;;;;;;;;;;7389769;19;20284;-71
2022/09/26 08:52:51;;;;;;;2.67;1.33;;;;;;;;;;7389122;19;20019;-72
2022/09/26 08:55:22;;;;;;;4.10;2.55;;;;;;;;;;7389510;19;19995;-71
2022/09/26 08:58:14;;;;;;;5.97;1.98;;;;;;;;;;7391004;19;20070;-72
2022/09/26 09:00:40;;;;;;;2.97;2.05;;;;;;;;;;7380838;19;20114;-71
2022/09/26 09:03:19;;;;;;;2.80;1.65;;;;;;;;;;7391023;19;20023;-71
2022/09/26 09:05:50;;;;;;;4.10;1.50;;;;;;;;;;7384286;19;20018;-71
2022/09/26 09:08:23;;;;;;;4.47;1.48;;;;;;;;;;7388887;19;20458;-71
2022/09/26 09:11:04;;;;;;;2.05;1.27;;;;;;;;;;7389546;19;20006;-72
2022/09/26 09:13:38;;;;;;;3.58;1.65;;;;;;;;;;7389841;19;20067;-72
2022/09/26 09:16:27;;;;;;;4.45;1.73;;;;;;;;;;7374894;19;20370;-71
2022/09/26 09:19:13;;;;;;;3.05;1.35;;;;;;;;;;7385290;19;20475;-73
2022/09/26 09:21:57;;;;;;;2.55;1.70;;;;;;;;;;7385384;19;20003;-73
2022/09/26 09:24:36;;;;;;;1.50;1.20;;;;;;;;;;7386457;19;20614;-73
2022/09/26 09:27:22;;;;;;;1.42;1.23;;;;;;;;;;7385797;19;20003;-72
2022/09/26 09:30:03;;;;;;;1.50;1.00;;;;;;;;;;7387222;19;20078;-73
2022/09/26 09:32:48;;;;;;;0.95;0.93;;;;;;;;;;7390535;19;20006;-72
2022/09/26 09:35:16;;;;;;;2.57;1.10;;;;;;;;;;7390383;19;20022;-72
2022/09/26 09:37:47;;;;;;;1.20;1.10;;;;;;;;;;7391545;19;20256;-72
2022/09/26 09:40:23;;;;;;;1.90;0.98;;;;;;;;;;7389938;19;20035;-73
2022/09/26 09:43:06;;;;;;;1.63;0.93;;;;;;;;;;7389008;19;20521;-72
2022/09/26 09:45:46;;;;;;;1.27;0.82;;;;;;;;;;7386616;19;20113;-72
2022/09/26 09:48:13;;;;;;;1.95;1.05;;;;;;;;;;7388056;19;20359;-72
2022/09/26 09:50:42;;;;;;;1.25;1.10;;;;;;;;;;7388719;19;20040;-72
2022/09/26 09:53:12;;;;;;;1.10;1.00;;;;;;;;;;7390520;19;20009;-72
2022/09/26 09:55:46;;;;;;;1.50;0.75;;;;;;;;;;7385056;19;20007;-71
2022/09/26 09:58:31;;;;;;;1.20;0.93;;;;;;;;;;7388759;19;19998;-72
2022/09/26 10:01:09;;;;;;;1.20;0.70;;;;;;;;;;7385926;19;20026;-72
2022/09/26 10:03:58;;;;;;;1.17;1.00;;;;;;;;;;7389298;19;20014;-72
2022/09/26 10:06:24;;;;;;;3.03;0.90;;;;;;;;;;7389081;19;19991;-72
2022/09/26 10:08:50;;;;;;;0.77;0.77;;;;;;;;;;7390421;19;20007;-72
2022/09/26 10:11:29;;;;;;;1.02;0.93;;;;;;;;;;7396863;19;20013;-72
2022/09/26 10:14:00;;;;;;;1.40;0.95;;;;;;;;;;7398132;19;20002;-72
2022/09/26 10:16:26;;;;;;;1.40;1.02;;;;;;;;;;7390673;19;20006;-72
2022/09/26 10:18:59;;;;;;;1.20;1.10;;;;;;;;;;7392645;19;20006;-72
2022/09/26 10:21:33;;;;;;;4.70;1.10;;;;;;;;;;7392813;19;20001;-72
2022/09/26 10:24:01;;;;;;;0.88;0.80;;;;;;;;;;7395948;19;20002;-71
2022/09/26 10:26:34;;;;;;;1.77;0.70;;;;;;;;;;7397669;19;20482;-72
2022/09/26 10:29:07;;;;;;;1.30;1.10;;;;;;;;;;7395183;19;19999;-72
2022/09/26 10:31:37;;;;;;;1.98;0.93;;;;;;;;;;7395391;19;20070;-72
2022/09/26 10:34:19;;;;;;;1.60;0.88;;;;;;;;;;7396320;19;20002;-72
2022/09/26 10:36:45;;;;;;;9.90;1.85;;;;;;;;;;7389228;19;20097;-72
2022/09/26 10:42:18;;;;;;;2.92;2.30;;;;;;;;;;7398315;19;20009;-72
2022/09/26 10:44:46;;;;;;;2.70;1.20;;;;;;;;;;7395620;19;20023;-72
2022/09/26 10:47:18;;;;;;;2.10;1.50;;;;;;;;;;7395504;19;20091;-72
2022/09/26 10:49:49;;;;;;;1.40;1.30;;;;;;;;;;7398204;19;20011;-72
2022/09/26 10:52:22;;;;;;;2.00;1.10;;;;;;;;;;7396670;19;19994;-72
2022/09/26 10:54:54;;;;;;;2.72;2.30;;;;;;;;;;7390034;19;20023;-71
2022/09/26 10:57:27;;;;;;;2.17;1.00;;;;;;;;;;7394413;19;20005;-71
2022/09/26 10:59:56;;;;;;;0.73;0.60;;;;;;;;;;7395911;19;20019;-71
2022/09/26 11:02:23;;;;;;;1.00;0.80;;;;;;;;;;7391496;19;20070;-72
2022/09/26 11:07:43;;;;;;;1.23;0.50;;;;;;;;;;7396965;19;20005;-71
2022/09/26 11:10:12;;;;;;;2.08;0.60;;;;;;;;;;7393417;19;20002;-72
2022/09/26 11:12:55;;;;;;;0.88;0.57;;;;;;;;;;7392966;19;20014;-73
2022/09/26 11:15:21;;;;;;;0.60;0.60;;;;;;;;;;7392546;19;20014;-72
2022/09/26 11:17:49;;;;;;;1.83;0.73;;;;;;;;;;7395312;19;20028;-72
2022/09/26 11:20:50;;;;;;;1.58;0.57;;;;;;;;;;7393123;19;20006;-72
2022/09/26 11:23:32;;;;;;;0.50;0.50;;;;;;;;;;7391719;19;20014;-72
2022/09/26 11:26:21;;;;;;;2.38;0.70;;;;;;;;;;7386943;19;20333;-72
2022/09/26 11:29:02;;;;;;;0.50;0.50;;;;;;;;;;7393734;19;20011;-72
2022/09/26 11:31:34;;;;;;;0.70;0.70;;;;;;;;;;7387736;19;20456;-71
2022/09/26 11:34:03;;;;;;;1.45;0.73;;;;;;;;;;7391940;19;20041;-72
2022/09/26 11:36:38;;;;;;;0.73;0.57;;;;;;;;;;7389817;19;20114;-72
2022/09/26 11:39:24;;;;;;;;;;;;;;;;;;7389905;19;20019;-71
2022/09/26 11:42:02;;;;;;;0.73;0.70;;;;;;;;;;7389074;19;20317;-72
2022/09/26 11:44:46;;;;;;;0.90;0.80;;;;;;;;;;7391973;19;19999;-72
2022/09/26 11:47:29;;;;;;;0.77;0.77;;;;;;;;;;7389141;19;20010;-72
2022/09/26 11:50:18;;;;;;;0.85;0.60;;;;;;;;;;7391998;19;20011;-71
2022/09/26 11:52:54;;;;;;;1.80;1.00;;;;;;;;;;7391677;19;20112;-71
2022/09/26 11:55:32;;;;;;;1.08;0.60;;;;;;;;;;7384898;19;20092;-71
2022/09/26 11:58:14;;;;;;;0.52;0.50;;;;;;;;;;7382889;19;20027;-72
2022/09/26 12:01:03;;;;;;;0.95;0.90;;;;;;;;;;7382434;19;20372;-72
2022/09/26 12:04:10;;;;;;;1.00;0.90;;;;;;;;;;7385503;19;20122;-71
2022/09/26 12:06:56;;;;;;;1.52;0.93;;;;;;;;;;7378874;19;20436;-72
2022/09/26 12:09:54;;;;;;;1.13;1.02;;;;;;;;;;7389863;19;20010;-72
2022/09/26 12:12:40;;;;;;;1.00;0.88;;;;;;;;;;7387146;19;20017;-71
2022/09/26 12:15:32;;;;;;;0.88;0.80;;;;;;;;;;7386265;19;20006;-72
2022/09/26 12:18:35;;;;;;;0.82;0.80;;;;;;;;;;7391059;19;20006;-72
2022/09/26 12:21:30;;;;;;;0.68;0.68;;;;;;;;;;7389246;19;20495;-71
2022/09/26 12:24:06;;;;;;;0.85;0.85;;;;;;;;;;7384944;19;20513;-71
2022/09/26 12:26:58;;;;;;;1.00;0.90;;;;;;;;;;7391940;19;20006;-72
2022/09/26 12:29:41;;;;;;;1.67;1.00;;;;;;;;;;7391526;19;20012;-73
2022/09/26 12:32:24;;;;;;;0.82;0.70;;;;;;;;;;7391192;19;20003;-72
2022/09/26 12:35:28;;;;;;;1.65;0.80;;;;;;;;;;7387039;19;20613;-71
2022/09/26 12:38:14;;;;;;;0.70;0.70;;;;;;;;;;7391359;19;20007;-71
2022/09/26 12:40:49;;;;;;;0.52;0.52;;;;;;;;;;7391862;19;20059;-72
2022/09/26 12:43:31;;;;;;;1.13;0.88;;;;;;;;;;7393525;19;20002;-72
2022/09/26 12:46:12;;;;;;;0.98;0.80;;;;;;;;;;7393754;19;20010;-72
2022/09/26 12:49:00;;;;;;;0.60;0.60;;;;;;;;;;7391598;19;20121;-73
2022/09/26 12:51:46;;;;;;;0.80;0.73;;;;;;;;;;7391601;19;20107;-72
2022/09/26 12:54:41;;;;;;;1.33;0.85;;;;;;;;;;7422447;19;20401;-72
2022/09/26 12:57:38;;;;;;;0.60;0.60;;;;;;;;;;7427218;19;20021;-72
2022/09/26 13:00:11;;;;;;;1.27;1.02;;;;;;;;;;7418165;19;19998;-72
2022/09/26 13:03:06;;;;;;;1.55;0.88;;;;;;;;;;7426093;19;20010;-72
2022/09/26 13:05:50;;;;;;;1.13;0.90;;;;;;;;;;7421762;19;20494;-72
2022/09/26 13:08:24;;;;;;;3.53;1.30;;;;;;;;;;7427018;19;20010;-72
2022/09/26 13:11:10;;;;;;;2.43;1.30;;;;;;;;;;7422210;19;20014;-72
2022/09/26 13:14:12;;;;;;;1.30;1.20;;;;;;;;;;7423453;19;20034;-72
2022/09/26 13:17:04;;;;;;;1.35;1.20;;;;;;;;;;7425072;19;20069;-72
2022/09/26 13:19:38;;;;;;;2.75;1.20;;;;;;;;;;7427375;19;20027;-72
2022/09/26 13:22:21;;;;;;;3.53;1.55;;;;;;;;;;7424502;19;20006;-73
2022/09/26 13:24:53;;;;;;;1.88;1.23;;;;;;;;;;7423125;19;20492;-72
2022/09/26 13:27:25;;;;;;;1.85;1.33;;;;;;;;;;7424944;19;20070;-72
2022/09/26 13:30:11;;;;;;;1.50;1.10;;;;;;;;;;7420851;19;20039;-72
2022/09/26 13:32:46;;;;;;;2.22;1.30;;;;;;;;;;7423011;19;20328;-72
2022/09/26 13:35:20;;;;;;;1.70;1.23;;;;;;;;;;7421760;19;20129;-72
2022/09/26 13:38:20;;;;;;;2.10;1.30;;;;;;;;;;7421914;19;20428;-72
2022/09/26 13:41:08;;;;;;;1.77;1.25;;;;;;;;;;7424874;19;20122;-72
2022/09/26 13:43:38;;;;;;;1.65;1.42;;;;;;;;;;7426744;19;20455;-72
2022/09/26 13:46:14;;;;;;;2.00;1.10;;;;;;;;;;7422089;19;20014;-70
2022/09/26 13:48:50;;;;;;;1.40;1.10;;;;;;;;;;7419658;19;20012;-72
2022/09/26 13:51:22;;;;;;;1.25;1.15;;;;;;;;;;7422833;19;20018;-73
2022/09/26 13:53:57;;;;;;;0.80;0.80;;;;;;;;;;7415766;19;20572;-72
2022/09/26 13:56:34;;;;;;;1.45;1.10;;;;;;;;;;7424315;19;20017;-72
2022/09/26 13:59:18;;;;;;;0.95;0.80;;;;;;;;;;7422795;19;20014;-72
2022/09/26 14:02:25;;;;;;;0.82;0.80;;;;;;;;;;7422473;19;20042;-72
2022/09/26 14:05:09;;;;;;;;;;;;;;;;;;7403007;19;20462;-73
2022/09/26 14:10:31;;;;;;;0.65;0.63;;;;;;;;;;7394428;19;20497;-72
2022/09/26 14:13:02;;;;;;;0.90;0.90;;;;;;;;;;7388334;19;20739;-72
2022/09/26 14:15:47;;;;;;;1.33;1.10;;;;;;;;;;7393254;19;20017;-72
2022/09/26 14:18:27;;;;;;;1.73;1.00;;;;;;;;;;7385845;19;20029;-72
2022/09/26 14:20:58;;;;;;;0.68;0.68;;;;;;;;;;7395193;19;20014;-72
2022/09/26 14:24:24;;;;;;;1.55;1.00;;;;;;;;;;7392910;19;20014;-73
2022/09/26 14:26:57;;;;;;;1.65;0.70;;;;;;;;;;7391496;19;20170;-73
2022/09/26 14:29:28;;;;;;;3.17;0.90;;;;;;;;;;7390308;19;20038;-72
2022/09/26 14:32:07;;;;;;;1.08;0.98;;;;;;;;;;7387241;19;20396;-75
2022/09/26 14:34:54;;;;;;;1.13;1.02;;;;;;;;;;7394484;19;20010;-76
2022/09/26 14:37:23;;;;;;;1.52;0.77;;;;;;;;;;7396199;19;20327;-76
2022/09/26 14:40:09;;;;;;;1.88;0.98;;;;;;;;;;7392325;19;20002;-76
2022/09/26 14:42:38;;;;;;;0.80;0.70;;;;;;;;;;7394381;19;20011;-76
2022/09/26 14:45:07;;;;;;;0.93;0.85;;;;;;;;;;7394312;19;20120;-76
2022/09/26 14:47:43;;;;;;;1.75;0.75;;;;;;;;;;7392764;19;20011;-76
2022/09/26 14:50:19;;;;;;;1.30;1.17;;;;;;;;;;7395230;19;20002;-76
2022/09/26 14:52:57;;;;;;;0.65;0.65;;;;;;;;;;7394353;19;20054;-76
2022/09/26 14:55:24;;;;;;;0.60;0.60;;;;;;;;;;7396746;19;19995;-75
2022/09/26 14:57:50;;;;;;;0.73;0.70;;;;;;;;;;7391726;19;20497;-75
2022/09/26 15:00:39;;;;;;;1.00;0.80;;;;;;;;;;7393765;19;20086;-76
2022/09/26 15:03:12;;;;;;;0.85;0.77;;;;;;;;;;7395599;19;20073;-76
2022/09/26 15:05:40;;;;;;;1.48;0.60;;;;;;;;;;7398127;19;20018;-76
2022/09/26 15:08:22;;;;;;;0.65;0.60;;;;;;;;;;7393802;19;20003;-76
2022/09/26 15:10:48;;;;;;;0.93;0.82;;;;;;;;;;7395877;19;20006;-75
2022/09/26 15:13:27;;;;;;;0.50;0.50;;;;;;;;;;7392184;19;20002;-76
2022/09/26 15:16:07;;;;;;;1.55;0.60;;;;;;;;;;7390972;19;20006;-75
2022/09/26 15:18:46;;;;;;;1.42;0.73;;;;;;;;;;7396526;19;20070;-76
2022/09/26 15:21:18;;;;;;;1.10;0.70;;;;;;;;;;7392742;19;20013;-76
2022/09/26 15:23:49;;;;;;;0.77;0.77;;;;;;;;;;7395530;19;20007;-76
2022/09/26 15:26:27;;;;;;;0.98;0.70;;;;;;;;;;7392248;19;20082;-76
2022/09/26 15:28:55;;;;;;;1.88;1.17;;;;;;;;;;7396553;19;20114;-76
2022/09/26 15:31:23;;;;;;;1.25;0.88;;;;;;;;;;7391162;19;20006;-76
2022/09/26 15:34:01;;;;;;;0.82;0.70;;;;;;;;;;7391606;19;20034;-76
2022/09/26 15:36:32;;;;;;;1.88;1.25;;;;;;;;;;7394265;19;20025;-75
2022/09/26 15:38:58;;;;;;;1.98;1.50;;;;;;;;;;7394124;19;20006;-75